createdAt,value
2022-10-22T00:01:55.019Z,100.00
2022-10-22T00:04:21.337Z,100.00
2022-10-22T00:06:47.722Z,100.00
2022-10-22T00:09:14.771Z,100.00
2022-10-22T00:11:42.000Z,100.00
2022-10-22T00:14:08.702Z,100.00
2022-10-22T00:16:35.059Z,100.00
2022-10-22T00:19:01.432Z,100.00
2022-10-22T00:21:27.797Z,100.00
2022-10-22T00:23:54.137Z,100.00
2022-10-22T00:26:20.625Z,100.00
2022-10-22T00:28:46.974Z,100.00
2022-10-22T00:31:13.399Z,100.00
2022-10-22T00:33:39.762Z,100.00
2022-10-22T00:36:06.432Z,100.00
2022-10-22T00:38:33.224Z,100.00
2022-10-22T00:40:59.537Z,100.00
2022-10-22T00:43:27.129Z,100.00
2022-10-22T00:45:53.498Z,100.00
2022-10-22T00:48:26.905Z,100.00
2022-10-22T00:51:13.840Z,100.00
2022-10-22T00:53:45.706Z,100.00
2022-10-22T00:56:12.166Z,100.00
2022-10-22T00:58:47.265Z,100.00
2022-10-22T01:01:18.753Z,100.00
2022-10-22T01:03:45.273Z,100.00
2022-10-22T01:06:18.868Z,100.00
2022-10-22T01:08:50.878Z,100.00
2022-10-22T01:11:32.279Z,100.00
2022-10-22T01:14:08.042Z,100.00
2022-10-22T01:16:48.904Z,100.00
2022-10-22T01:19:55.204Z,100.00
2022-10-22T01:22:27.257Z,100.00
2022-10-22T01:25:17.698Z,100.00
2022-10-22T01:28:00.691Z,100.00
2022-10-22T01:30:27.348Z,100.00
2022-10-22T01:32:59.166Z,100.00
2022-10-22T01:35:31.062Z,100.00
2022-10-22T01:38:01.614Z,100.00
2022-10-22T01:40:28.895Z,100.00
2022-10-22T01:43:04.721Z,100.00
2022-10-22T01:45:53.344Z,100.00
2022-10-22T01:48:55.782Z,100.00
2022-10-22T01:51:40.434Z,100.00
2022-10-22T01:54:15.756Z,100.00
2022-10-22T01:57:00.540Z,100.00
2022-10-22T01:59:50.844Z,100.00
2022-10-22T02:02:30.393Z,100.00
2022-10-22T02:05:03.107Z,100.00
2022-10-22T02:07:37.518Z,100.00
2022-10-22T02:10:05.605Z,100.00
2022-10-22T02:12:33.082Z,100.00
2022-10-22T02:15:02.582Z,100.00
2022-10-22T02:17:32.164Z,100.00
2022-10-22T02:20:06.610Z,100.00
2022-10-22T02:22:33.751Z,100.00
2022-10-22T02:25:00.460Z,100.00
2022-10-22T02:28:02.066Z,100.00
2022-10-22T02:30:30.724Z,100.00
2022-10-22T02:33:10.839Z,100.00
2022-10-22T02:35:40.748Z,100.00
2022-10-22T02:38:08.779Z,100.00
2022-10-22T02:40:35.247Z,100.00
2022-10-22T02:43:04.590Z,100.00
2022-10-22T02:45:31.343Z,100.00
2022-10-22T02:47:58.072Z,100.00
2022-10-22T02:50:24.433Z,100.00
2022-10-22T02:52:50.758Z,100.00
2022-10-22T02:55:17.592Z,100.00
2022-10-22T02:57:44.070Z,100.00
2022-10-22T03:00:11.581Z,100.00
2022-10-22T03:02:37.945Z,100.00
2022-10-22T03:05:05.201Z,100.00
2022-10-22T03:07:31.518Z,100.00
2022-10-22T03:09:57.862Z,100.00
2022-10-22T03:12:24.141Z,100.00
2022-10-22T03:14:50.487Z,100.00
2022-10-22T03:17:17.039Z,100.00
2022-10-22T03:19:43.386Z,100.00
2022-10-22T03:22:21.062Z,100.00
2022-10-22T03:24:50.514Z,100.00
2022-10-22T03:27:19.990Z,100.00
2022-10-22T03:29:46.732Z,100.00
2022-10-22T03:32:13.930Z,100.00
2022-10-22T03:34:40.243Z,100.00
2022-10-22T03:37:06.604Z,100.00
2022-10-22T03:39:34.834Z,100.00
2022-10-22T03:42:01.959Z,100.00
2022-10-22T03:44:28.534Z,100.00
2022-10-22T03:46:58.608Z,100.00
2022-10-22T03:49:28.002Z,100.00
2022-10-22T03:51:54.302Z,100.00
2022-10-22T03:54:20.676Z,100.00
2022-10-22T03:56:47.007Z,100.00
2022-10-22T03:59:13.443Z,100.00
2022-10-22T04:01:39.750Z,100.00
2022-10-22T04:04:06.105Z,100.00
2022-10-22T04:06:32.391Z,100.00
2022-10-22T04:08:59.393Z,100.00
2022-10-22T04:11:25.848Z,100.00
2022-10-22T04:13:52.192Z,100.00
2022-10-22T04:16:24.998Z,100.00
2022-10-22T04:18:53.899Z,100.00
2022-10-22T04:21:20.217Z,100.00
2022-10-22T04:23:48.179Z,100.00
2022-10-22T04:26:15.390Z,100.00
2022-10-22T04:28:41.871Z,100.00
2022-10-22T04:31:16.689Z,100.00
2022-10-22T04:33:43.149Z,100.00
2022-10-22T04:36:16.438Z,100.00
2022-10-22T04:38:44.226Z,100.00
2022-10-22T04:41:11.709Z,100.00
2022-10-22T04:43:38.491Z,100.00
2022-10-22T04:46:05.356Z,100.00
2022-10-22T04:48:31.707Z,100.00
2022-10-22T04:50:58.978Z,100.00
2022-10-22T04:53:25.811Z,100.00
2022-10-22T04:55:52.137Z,100.00
2022-10-22T04:58:18.451Z,100.00
2022-10-22T05:00:44.957Z,100.00
2022-10-22T05:03:11.319Z,100.00
2022-10-22T05:05:37.657Z,100.00
2022-10-22T05:08:04.142Z,100.00
2022-10-22T05:10:30.448Z,100.00
2022-10-22T05:12:56.740Z,100.00
2022-10-22T05:15:23.078Z,100.00
2022-10-22T05:17:49.365Z,100.00
2022-10-22T05:20:15.874Z,100.00
2022-10-22T05:22:42.195Z,100.00
2022-10-22T05:25:08.657Z,100.00
2022-10-22T05:27:35.291Z,100.00
2022-10-22T05:30:01.619Z,100.00
2022-10-22T05:32:27.973Z,100.00
2022-10-22T05:34:54.299Z,100.00
2022-10-22T05:37:20.632Z,100.00
2022-10-22T05:39:46.938Z,100.00
2022-10-22T05:42:13.243Z,100.00
2022-10-22T05:44:39.600Z,100.00
2022-10-22T05:47:05.908Z,100.00
2022-10-22T05:49:32.349Z,100.00
2022-10-22T05:51:58.700Z,100.00
2022-10-22T05:54:25.052Z,100.00
2022-10-22T05:56:51.355Z,100.00
2022-10-22T05:59:17.741Z,100.00
2022-10-22T06:01:44.276Z,100.00
2022-10-22T06:04:12.570Z,100.00
2022-10-22T06:06:51.190Z,100.00
2022-10-22T06:09:24.521Z,100.00
2022-10-22T06:11:51.845Z,100.00
2022-10-22T06:14:19.160Z,100.00
2022-10-22T06:16:45.945Z,100.00
2022-10-22T06:19:16.974Z,100.00
2022-10-22T06:21:44.150Z,100.00
2022-10-22T06:24:11.322Z,100.00
2022-10-22T06:26:37.751Z,100.00
2022-10-22T06:29:04.541Z,100.00
2022-10-22T06:31:31.202Z,100.00
2022-10-22T06:33:57.617Z,100.00
2022-10-22T06:36:24.362Z,100.00
2022-10-22T06:38:55.446Z,100.00
2022-10-22T06:41:24.401Z,100.00
2022-10-22T06:43:53.657Z,100.00
2022-10-22T06:46:21.441Z,100.00
2022-10-22T06:48:57.882Z,100.00
2022-10-22T06:51:25.589Z,100.00
2022-10-22T06:53:53.371Z,100.00
2022-10-22T06:56:21.918Z,100.00
2022-10-22T06:58:49.931Z,100.00
2022-10-22T07:01:18.471Z,100.00
2022-10-22T07:03:45.115Z,100.00
2022-10-22T07:06:13.717Z,100.00
2022-10-22T07:08:41.217Z,100.00
2022-10-22T07:11:20.660Z,100.00
2022-10-22T07:13:47.759Z,100.00
2022-10-22T07:16:15.656Z,100.00
2022-10-22T07:18:42.433Z,100.00
2022-10-22T07:21:10.353Z,100.00
2022-10-22T07:23:37.462Z,100.00
2022-10-22T07:26:05.066Z,100.00
2022-10-22T07:28:31.425Z,100.00
2022-10-22T07:30:57.783Z,100.00
2022-10-22T07:33:24.208Z,100.00
2022-10-22T07:35:50.534Z,100.00
2022-10-22T07:38:16.888Z,100.00
2022-10-22T07:40:43.218Z,100.00
2022-10-22T07:43:09.583Z,100.00
2022-10-22T07:45:36.066Z,100.00
2022-10-22T07:48:02.426Z,100.00
2022-10-22T07:50:28.947Z,100.00
2022-10-22T07:52:57.456Z,100.00
2022-10-22T07:55:24.808Z,100.00
2022-10-22T07:57:51.282Z,100.00
2022-10-22T08:00:20.444Z,100.00
2022-10-22T08:02:49.432Z,100.00
2022-10-22T08:05:15.825Z,100.00
2022-10-22T08:07:43.113Z,100.00
2022-10-22T08:10:10.558Z,100.00
2022-10-22T08:12:37.582Z,100.00
2022-10-22T08:15:04.602Z,100.00
2022-10-22T08:17:30.968Z,100.00
2022-10-22T08:19:57.294Z,100.00
2022-10-22T08:22:23.712Z,100.00
2022-10-22T08:24:50.073Z,100.00
2022-10-22T08:27:16.575Z,100.00
2022-10-22T08:29:43.057Z,100.00
2022-10-22T08:32:09.390Z,99.90
2022-10-22T08:34:35.783Z,98.92
2022-10-22T08:37:02.143Z,98.87
2022-10-22T08:39:28.644Z,97.81
2022-10-22T08:42:16.568Z,99.17
2022-10-22T08:44:55.421Z,97.37
2022-10-22T08:47:53.189Z,95.40
2022-10-22T08:50:26.979Z,97.53
2022-10-22T08:52:58.777Z,96.84
2022-10-22T08:55:25.819Z,93.95
2022-10-22T08:58:13.737Z,94.76
2022-10-22T09:00:50.018Z,94.10
2022-10-22T09:03:49.906Z,93.38
2022-10-22T09:06:23.639Z,93.97
2022-10-22T09:08:51.040Z,94.14
2022-10-22T09:11:28.620Z,94.77
2022-10-22T09:13:57.209Z,93.62
2022-10-22T09:16:32.198Z,94.30
2022-10-22T09:19:17.295Z,93.57
2022-10-22T09:22:25.174Z,94.53
2022-10-22T09:24:58.437Z,93.78
2022-10-22T09:27:30.549Z,94.84
2022-10-22T09:29:56.989Z,94.87
2022-10-22T09:32:23.666Z,95.31
2022-10-22T09:34:50.534Z,94.36
2022-10-22T09:37:19.686Z,94.59
2022-10-22T09:39:50.817Z,94.94
2022-10-22T09:42:19.565Z,95.87
2022-10-22T09:44:58.024Z,97.15
2022-10-22T09:47:43.464Z,96.94
2022-10-22T09:50:36.850Z,96.65
2022-10-22T09:53:14.122Z,96.30
2022-10-22T09:55:42.262Z,95.35
2022-10-22T09:58:12.991Z,96.12
2022-10-22T10:00:45.590Z,96.05
2022-10-22T10:03:21.278Z,96.08
2022-10-22T10:05:51.389Z,96.12
2022-10-22T10:08:17.983Z,96.24
2022-10-22T10:10:48.847Z,95.28
2022-10-22T10:13:26.982Z,95.05
2022-10-22T10:16:08.135Z,95.18
2022-10-22T10:18:46.074Z,95.76
2022-10-22T10:22:00.541Z,95.02
2022-10-22T10:24:45.490Z,93.63
2022-10-22T10:27:40.105Z,94.47
2022-10-22T10:30:14.890Z,94.58
2022-10-22T10:33:08.340Z,92.45
2022-10-22T10:36:19.107Z,91.02
2022-10-22T10:38:56.893Z,91.57
2022-10-22T10:41:39.535Z,89.94
2022-10-22T10:44:21.880Z,89.51
2022-10-22T10:47:15.477Z,89.08
2022-10-22T10:49:43.368Z,88.94
2022-10-22T10:52:29.312Z,87.77
2022-10-22T10:55:20.094Z,87.30
2022-10-22T10:58:12.350Z,87.73
2022-10-22T11:00:50.553Z,88.77
2022-10-22T11:03:46.187Z,86.70
2022-10-22T11:06:15.395Z,88.21
2022-10-22T11:08:50.553Z,88.81
2022-10-22T11:11:22.891Z,87.90
2022-10-22T11:13:57.719Z,86.45
2022-10-22T11:16:31.529Z,85.81
2022-10-22T11:18:57.793Z,85.70
2022-10-22T11:21:51.571Z,85.10
2022-10-22T11:24:43.159Z,83.35
2022-10-22T11:27:21.958Z,83.49
2022-10-22T11:29:54.746Z,83.65
2022-10-22T11:32:23.057Z,77.97
2022-10-22T11:34:53.242Z,78.48
2022-10-22T11:37:21.920Z,78.40
2022-10-22T11:39:53.941Z,78.57
2022-10-22T11:42:33.445Z,77.52
2022-10-22T11:45:14.839Z,78.03
2022-10-22T11:47:56.547Z,79.39
2022-10-22T11:50:25.357Z,78.78
2022-10-22T11:53:17.715Z,79.71
2022-10-22T11:56:06.766Z,80.07
2022-10-22T11:58:40.062Z,81.19
2022-10-22T12:01:09.433Z,81.23
2022-10-22T12:03:40.744Z,80.51
2022-10-22T12:06:09.793Z,81.38
2022-10-22T12:08:43.767Z,80.97
2022-10-22T12:11:10.038Z,80.53
2022-10-22T12:14:03.342Z,79.56
2022-10-22T12:16:55.046Z,80.28
2022-10-22T12:19:22.262Z,79.97
2022-10-22T12:22:12.262Z,78.75
2022-10-22T12:24:41.701Z,77.62
2022-10-22T12:27:22.432Z,78.23
2022-10-22T12:29:54.027Z,79.72
2022-10-22T12:32:20.405Z,79.38
2022-10-22T12:37:17.437Z,77.36
2022-10-22T12:39:45.535Z,77.81
2022-10-22T12:42:17.105Z,77.38
2022-10-22T12:44:44.883Z,77.50
2022-10-22T12:47:16.324Z,76.79
2022-10-22T12:49:47.097Z,74.75
2022-10-22T12:52:18.325Z,73.64
2022-10-22T12:54:47.796Z,74.61
2022-10-22T12:57:17.044Z,72.31
2022-10-22T12:59:51.517Z,72.03
2022-10-22T13:02:26.459Z,71.63
2022-10-22T13:05:16.123Z,73.42
2022-10-22T13:07:46.885Z,74.59
2022-10-22T13:10:25.041Z,74.68
2022-10-22T13:12:55.437Z,75.27
2022-10-22T13:15:27.502Z,75.70
2022-10-22T13:18:14.523Z,75.55
2022-10-22T13:20:53.984Z,76.82
2022-10-22T13:23:23.703Z,76.58
2022-10-22T13:26:03.833Z,77.90
2022-10-22T13:28:33.133Z,77.52
2022-10-22T13:31:11.415Z,79.14
2022-10-22T13:33:40.952Z,78.83
2022-10-22T13:36:13.061Z,77.78
2022-10-22T13:38:39.432Z,77.57
2022-10-22T13:41:18.837Z,76.54
2022-10-22T13:43:45.145Z,76.15
2022-10-22T13:46:11.494Z,75.57
2022-10-22T13:48:38.561Z,76.41
2022-10-22T13:51:13.566Z,75.37
2022-10-22T13:53:39.952Z,74.28
2022-10-22T13:56:06.294Z,73.76
2022-10-22T13:58:32.668Z,74.86
2022-10-22T14:00:59.720Z,75.34
2022-10-22T14:03:33.018Z,75.71
2022-10-22T14:06:00.118Z,75.30
2022-10-22T14:08:27.801Z,75.16
2022-10-22T14:10:54.943Z,74.44
2022-10-22T14:13:21.571Z,73.47
2022-10-22T14:15:50.084Z,74.18
2022-10-22T14:18:21.604Z,74.50
2022-10-22T14:20:47.922Z,74.54
2022-10-22T14:23:20.458Z,74.78
2022-10-22T14:25:48.157Z,75.41
2022-10-22T14:28:14.486Z,75.83
2022-10-22T14:30:41.926Z,76.54
2022-10-22T14:33:27.208Z,76.93
2022-10-22T14:35:58.098Z,77.24
2022-10-22T14:38:24.417Z,78.13
2022-10-22T14:40:50.974Z,78.86
2022-10-22T14:43:22.214Z,79.56
2022-10-22T14:45:49.171Z,79.70
2022-10-22T14:48:15.714Z,79.07
2022-10-22T14:50:43.754Z,78.75
2022-10-22T14:53:10.373Z,79.47
2022-10-22T14:55:36.969Z,79.41
2022-10-22T14:58:03.287Z,79.90
2022-10-22T15:00:29.705Z,80.52
2022-10-22T15:02:56.135Z,80.45
2022-10-22T15:05:22.510Z,80.45
2022-10-22T15:07:48.851Z,80.96
2022-10-22T15:10:15.175Z,80.95
2022-10-22T15:12:41.477Z,81.51
2022-10-22T15:15:08.323Z,81.24
2022-10-22T15:17:34.752Z,81.55
2022-10-22T15:20:01.267Z,81.71
2022-10-22T15:22:27.602Z,82.04
2022-10-22T15:24:54.029Z,81.99
2022-10-22T15:27:20.355Z,82.36
2022-10-22T15:29:46.676Z,82.56
2022-10-22T15:32:13.036Z,82.71
2022-10-22T15:34:40.276Z,83.07
2022-10-22T15:37:12.831Z,83.23
2022-10-22T15:39:40.710Z,83.38
2022-10-22T15:42:07.323Z,83.63
2022-10-22T15:44:33.892Z,84.10
2022-10-22T15:47:03.674Z,84.21
2022-10-22T15:49:30.027Z,84.15
2022-10-22T15:51:56.575Z,84.47
2022-10-22T15:54:26.255Z,84.83
2022-10-22T15:56:52.548Z,85.26
2022-10-22T15:59:19.134Z,85.19
2022-10-22T16:01:45.715Z,85.67
2022-10-22T16:04:12.355Z,85.56
2022-10-22T16:06:43.376Z,85.63
2022-10-22T16:09:12.775Z,85.57
2022-10-22T16:11:39.576Z,85.36
2022-10-22T16:14:06.597Z,85.48
2022-10-22T16:16:35.136Z,85.69
2022-10-22T16:19:02.114Z,85.99
2022-10-22T16:21:28.790Z,85.92
2022-10-22T16:23:55.153Z,86.03
2022-10-22T16:26:21.615Z,86.47
2022-10-22T16:28:48.567Z,86.65
2022-10-22T16:31:17.401Z,86.90
2022-10-22T16:33:46.460Z,87.10
2022-10-22T16:36:19.223Z,87.42
2022-10-22T16:38:46.485Z,87.53
2022-10-22T16:41:15.092Z,87.59
2022-10-22T16:43:42.716Z,87.85
2022-10-22T16:46:11.043Z,88.35
2022-10-22T16:48:37.649Z,88.74
2022-10-22T16:51:09.160Z,89.62
2022-10-22T16:53:36.186Z,89.81
2022-10-22T16:56:02.829Z,89.84
2022-10-22T16:58:29.503Z,89.91
2022-10-22T17:00:55.890Z,90.11
2022-10-22T17:03:24.538Z,90.37
2022-10-22T17:05:53.892Z,90.84
2022-10-22T17:08:20.223Z,91.99
2022-10-22T17:10:46.617Z,92.11
2022-10-22T17:13:13.006Z,92.29
2022-10-22T17:15:39.308Z,91.89
2022-10-22T17:18:25.594Z,91.60
2022-10-22T17:20:51.896Z,92.32
2022-10-22T17:23:18.248Z,93.03
2022-10-22T17:25:44.921Z,93.64
2022-10-22T17:28:11.678Z,94.23
2022-10-22T17:30:38.606Z,94.43
2022-10-22T17:33:08.707Z,95.07
2022-10-22T17:35:39.207Z,95.21
2022-10-22T17:38:06.486Z,95.17
2022-10-22T17:40:35.253Z,95.09
2022-10-22T17:43:01.590Z,95.23
2022-10-22T17:45:27.874Z,94.64
2022-10-22T17:47:54.187Z,94.49
2022-10-22T17:50:20.493Z,95.18
2022-10-22T17:52:46.807Z,97.02
2022-10-22T17:55:13.335Z,98.00
2022-10-22T17:57:39.811Z,98.85
2022-10-22T18:00:06.759Z,100.00
2022-10-22T18:02:33.086Z,100.00
2022-10-22T18:04:59.400Z,100.00
2022-10-22T18:07:25.680Z,100.00
2022-10-22T18:09:51.999Z,100.00
2022-10-22T18:12:18.342Z,100.00
2022-10-22T18:14:44.980Z,100.00
2022-10-22T18:17:12.217Z,100.00
2022-10-22T18:19:38.580Z,100.00
2022-10-22T18:22:04.927Z,100.00
2022-10-22T18:24:31.219Z,100.00
2022-10-22T18:26:57.524Z,100.00
2022-10-22T18:29:23.870Z,100.00
2022-10-22T18:31:50.230Z,100.00
2022-10-22T18:34:19.075Z,100.00
2022-10-22T18:36:48.120Z,100.00
2022-10-22T18:39:15.558Z,100.00
2022-10-22T18:41:42.029Z,100.00
2022-10-22T18:44:08.621Z,100.00
2022-10-22T18:46:35.113Z,100.00
2022-10-22T18:49:01.553Z,100.00
2022-10-22T18:51:29.758Z,100.00
2022-10-22T18:54:05.808Z,100.00
2022-10-22T18:56:43.288Z,100.00
2022-10-22T18:59:18.313Z,100.00
2022-10-22T19:01:44.641Z,100.00
2022-10-22T19:04:12.729Z,100.00
2022-10-22T19:06:44.301Z,100.00
2022-10-22T19:09:12.941Z,100.00
2022-10-22T19:11:39.281Z,100.00
2022-10-22T19:14:05.735Z,100.00
2022-10-22T19:16:32.085Z,100.00
2022-10-22T19:19:02.407Z,100.00
2022-10-22T19:21:29.135Z,100.00
2022-10-22T19:23:56.726Z,100.00
2022-10-22T19:26:23.492Z,100.00
2022-10-22T19:28:50.063Z,100.00
2022-10-22T19:31:21.425Z,100.00
2022-10-22T19:33:48.368Z,100.00
2022-10-22T19:36:16.971Z,100.00
2022-10-22T19:38:46.081Z,100.00
2022-10-22T19:41:15.706Z,100.00
2022-10-22T19:43:43.895Z,100.00
2022-10-22T19:46:10.627Z,100.00
2022-10-22T19:48:37.725Z,100.00
2022-10-22T19:51:10.154Z,100.00
2022-10-22T19:53:38.639Z,100.00
2022-10-22T19:56:06.904Z,100.00
2022-10-22T19:58:33.671Z,100.00
2022-10-22T20:01:07.867Z,100.00
2022-10-22T20:03:34.926Z,100.00
2022-10-22T20:06:01.256Z,100.00
2022-10-22T20:08:27.574Z,100.00
2022-10-22T20:10:54.111Z,100.00
2022-10-22T20:13:20.785Z,100.00
2022-10-22T20:15:48.205Z,100.00
2022-10-22T20:18:14.943Z,100.00
2022-10-22T20:20:41.325Z,100.00
2022-10-22T20:23:07.631Z,100.00
2022-10-22T20:25:35.025Z,100.00
2022-10-22T20:28:02.475Z,100.00
2022-10-22T20:30:28.773Z,100.00
2022-10-22T20:32:55.137Z,100.00
2022-10-22T20:35:21.442Z,100.00
2022-10-22T20:37:47.741Z,100.00
2022-10-22T20:40:14.090Z,100.00
2022-10-22T20:42:40.860Z,100.00
2022-10-22T20:45:08.031Z,100.00
2022-10-22T20:47:44.694Z,100.00
2022-10-22T20:50:19.770Z,100.00
2022-10-22T20:52:46.071Z,100.00
2022-10-22T20:55:17.242Z,100.00
2022-10-22T20:57:43.945Z,100.00
2022-10-22T21:00:11.087Z,100.00
2022-10-22T21:02:37.386Z,100.00
2022-10-22T21:05:03.829Z,100.00
2022-10-22T21:07:30.158Z,100.00
2022-10-22T21:09:56.501Z,100.00
2022-10-22T21:12:22.803Z,100.00
2022-10-22T21:14:49.120Z,100.00
2022-10-22T21:17:15.438Z,100.00
2022-10-22T21:19:41.777Z,100.00
2022-10-22T21:22:08.103Z,100.00
2022-10-22T21:24:34.393Z,100.00
2022-10-22T21:27:00.702Z,100.00
2022-10-22T21:29:27.148Z,100.00
2022-10-22T21:31:53.486Z,100.00
2022-10-22T21:34:19.771Z,100.00
2022-10-22T21:39:13.409Z,100.00
2022-10-22T21:41:39.748Z,100.00
2022-10-22T21:44:06.349Z,100.00
2022-10-22T21:46:32.721Z,100.00
2022-10-22T21:49:01.983Z,100.00
2022-10-22T21:51:30.611Z,100.00
2022-10-22T21:53:57.209Z,100.00
2022-10-22T21:56:26.963Z,100.00
2022-10-22T21:58:53.629Z,100.00
2022-10-22T22:01:20.708Z,100.00
2022-10-22T22:03:48.801Z,100.00
2022-10-22T22:06:21.101Z,100.00
2022-10-22T22:08:48.604Z,100.00
2022-10-22T22:11:17.840Z,100.00
2022-10-22T22:13:44.699Z,100.00
2022-10-22T22:16:14.192Z,100.00
2022-10-22T22:18:41.255Z,100.00
2022-10-22T22:21:10.881Z,100.00
2022-10-22T22:23:38.871Z,100.00
2022-10-22T22:26:05.790Z,100.00
2022-10-22T22:28:33.125Z,100.00
2022-10-22T22:30:59.593Z,100.00
2022-10-22T22:33:26.504Z,100.00
2022-10-22T22:35:53.202Z,100.00
2022-10-22T22:38:19.554Z,100.00
2022-10-22T22:40:45.864Z,100.00
2022-10-22T22:43:12.202Z,100.00
2022-10-22T22:45:38.515Z,100.00
2022-10-22T22:48:04.913Z,100.00
2022-10-22T22:50:31.272Z,100.00
2022-10-22T22:52:57.581Z,100.00
2022-10-22T22:55:24.009Z,100.00
2022-10-22T22:57:50.384Z,100.00
2022-10-22T23:00:16.958Z,100.00
2022-10-22T23:02:43.690Z,100.00
2022-10-22T23:05:10.279Z,100.00
2022-10-22T23:07:36.612Z,100.00
2022-10-22T23:10:03.363Z,100.00
2022-10-22T23:12:29.732Z,100.00
2022-10-22T23:14:56.047Z,100.00
2022-10-22T23:17:22.352Z,100.00
2022-10-22T23:19:48.690Z,100.00
2022-10-22T23:22:15.067Z,100.00
2022-10-22T23:24:41.408Z,100.00
2022-10-22T23:27:07.808Z,100.00
2022-10-22T23:29:34.859Z,100.00
2022-10-22T23:32:03.048Z,100.00
2022-10-22T23:34:30.584Z,100.00
2022-10-22T23:36:59.404Z,100.00
2022-10-22T23:39:27.742Z,100.00
2022-10-22T23:41:54.690Z,100.00
2022-10-22T23:44:21.904Z,100.00
2022-10-22T23:46:48.307Z,100.00
2022-10-22T23:49:15.765Z,100.00
2022-10-22T23:51:42.137Z,100.00
2022-10-22T23:54:12.683Z,100.00
2022-10-22T23:56:39.042Z,100.00
2022-10-22T23:59:06.626Z,100.00
